createdAt,value
2018-02-22T00:01:30.349Z,44.80
2018-02-22T00:03:58.466Z,48.70
2018-02-22T00:06:26.579Z,43.30
2018-02-22T00:08:54.709Z,45.23
2018-02-22T00:11:22.841Z,41.53
2018-02-22T00:13:50.969Z,49.27
2018-02-22T00:16:19.072Z,44.00
2018-02-22T00:18:47.198Z,39.90
2018-02-22T00:21:15.306Z,39.93
2018-02-22T00:23:43.421Z,43.60
2018-02-22T00:26:11.542Z,44.80
2018-02-22T00:28:39.651Z,41.87
2018-02-22T00:31:07.762Z,44.03
2018-02-22T00:33:35.895Z,43.23
2018-02-22T00:36:03.992Z,43.83
2018-02-22T00:38:32.226Z,47.87
2018-02-22T00:41:00.361Z,46.87
2018-02-22T00:43:28.474Z,42.57
2018-02-22T00:45:56.589Z,42.73
2018-02-22T00:48:24.687Z,42.93
2018-02-22T00:50:52.836Z,45.17
2018-02-22T00:53:20.960Z,44.23
2018-02-22T00:55:49.071Z,40.40
2018-02-22T00:58:17.186Z,44.23
2018-02-22T01:00:45.300Z,44.40
2018-02-22T01:03:13.428Z,44.70
2018-02-22T01:05:41.553Z,45.73
2018-02-22T01:08:09.654Z,41.33
2018-02-22T01:10:37.782Z,41.23
2018-02-22T01:13:05.901Z,44.27
2018-02-22T01:15:34.026Z,44.37
2018-02-22T01:18:02.125Z,44.33
2018-02-22T01:20:30.253Z,41.07
2018-02-22T01:22:58.384Z,41.67
2018-02-22T01:25:26.505Z,44.40
2018-02-22T01:27:54.631Z,38.17
2018-02-22T01:30:22.753Z,42.33
2018-02-22T01:32:50.870Z,42.73
2018-02-22T01:35:18.983Z,44.43
2018-02-22T01:37:47.127Z,43.70
2018-02-22T01:40:15.236Z,41.73
2018-02-22T01:42:43.360Z,46.47
2018-02-22T01:45:11.490Z,41.50
2018-02-22T01:47:39.599Z,42.77
2018-02-22T01:50:07.743Z,46.43
2018-02-22T01:52:35.869Z,44.53
2018-02-22T01:55:03.993Z,45.07
2018-02-22T01:57:32.128Z,46.03
2018-02-22T02:00:00.272Z,43.33
2018-02-22T02:02:28.388Z,43.23
2018-02-22T02:04:56.521Z,43.80
2018-02-22T02:07:24.634Z,42.23
2018-02-22T02:09:52.752Z,42.67
2018-02-22T02:12:20.887Z,42.37
2018-02-22T02:14:49.006Z,43.17
2018-02-22T02:17:17.205Z,44.27
2018-02-22T02:19:45.331Z,41.20
2018-02-22T02:22:13.576Z,42.23
2018-02-22T02:24:41.866Z,39.17
2018-02-22T02:27:10.033Z,45.57
2018-02-22T02:29:38.177Z,44.33
2018-02-22T02:32:06.316Z,40.87
2018-02-22T02:34:34.441Z,42.67
2018-02-22T02:37:02.582Z,39.27
2018-02-22T02:39:30.680Z,41.97
2018-02-22T02:41:58.845Z,42.03
2018-02-22T02:44:26.962Z,40.40
2018-02-22T02:46:55.124Z,41.73
2018-02-22T02:49:23.285Z,40.93
2018-02-22T02:51:51.409Z,42.83
2018-02-22T02:54:19.526Z,43.17
2018-02-22T02:56:47.664Z,43.53
2018-02-22T02:59:15.789Z,39.33
2018-02-22T03:01:43.907Z,47.07
2018-02-22T03:04:12.019Z,40.90
2018-02-22T03:06:40.135Z,39.63
2018-02-22T03:09:08.250Z,42.83
2018-02-22T03:11:36.381Z,40.60
2018-02-22T03:14:04.521Z,42.07
2018-02-22T03:16:32.631Z,42.10
2018-02-22T03:19:00.744Z,38.60
2018-02-22T03:21:28.870Z,39.20
2018-02-22T03:23:57.001Z,40.83
2018-02-22T03:26:25.123Z,42.93
2018-02-22T03:28:53.254Z,35.77
2018-02-22T03:31:21.381Z,37.93
2018-02-22T03:33:49.483Z,38.43
2018-02-22T03:36:17.610Z,41.10
2018-02-22T03:38:45.745Z,39.50
2018-02-22T03:41:13.869Z,39.97
2018-02-22T03:43:42.015Z,38.93
2018-02-22T03:46:10.142Z,38.37
2018-02-22T03:48:38.557Z,40.10
2018-02-22T03:51:06.656Z,36.77
2018-02-22T03:53:34.850Z,38.50
2018-02-22T03:56:02.982Z,39.00
2018-02-22T03:58:31.095Z,37.47
2018-02-22T04:00:59.220Z,38.03
2018-02-22T04:03:27.348Z,38.43
2018-02-22T04:05:55.482Z,36.47
2018-02-22T04:08:23.609Z,42.93
2018-02-22T04:10:51.725Z,35.67
2018-02-22T04:13:20.334Z,38.50
2018-02-22T04:15:48.441Z,42.93
2018-02-22T04:18:18.463Z,43.47
2018-02-22T04:20:46.575Z,40.53
2018-02-22T04:23:14.707Z,37.57
2018-02-22T04:25:42.829Z,38.90
2018-02-22T04:28:10.931Z,36.40
2018-02-22T04:30:39.053Z,37.80
2018-02-22T04:33:07.172Z,40.20
2018-02-22T04:35:35.316Z,40.07
2018-02-22T04:38:03.436Z,42.87
2018-02-22T04:40:31.539Z,39.97
2018-02-22T04:42:59.685Z,37.50
2018-02-22T04:45:27.790Z,39.73
2018-02-22T04:47:55.946Z,42.97
2018-02-22T04:50:24.066Z,36.33
2018-02-22T04:52:52.173Z,35.43
2018-02-22T04:55:20.284Z,36.57
2018-02-22T04:57:48.386Z,38.57
2018-02-22T05:00:16.503Z,35.73
2018-02-22T05:02:44.607Z,34.73
2018-02-22T05:05:12.719Z,42.13
2018-02-22T05:07:40.842Z,35.93
2018-02-22T05:10:09.116Z,37.10
2018-02-22T05:12:37.215Z,42.70
2018-02-22T05:15:05.373Z,38.30
2018-02-22T05:17:33.494Z,39.57
2018-02-22T05:20:01.623Z,38.47
2018-02-22T05:22:29.749Z,36.77
2018-02-22T05:24:57.890Z,33.83
2018-02-22T05:27:25.993Z,35.70
2018-02-22T05:29:54.137Z,41.03
2018-02-22T05:32:23.154Z,38.47
2018-02-22T05:34:51.283Z,40.20
2018-02-22T05:37:22.446Z,38.30
2018-02-22T05:39:50.575Z,37.37
2018-02-22T05:42:18.698Z,35.20
2018-02-22T05:44:46.808Z,38.67
2018-02-22T05:47:14.934Z,36.00
2018-02-22T05:49:43.061Z,36.03
2018-02-22T05:52:11.167Z,37.70
2018-02-22T05:54:39.274Z,37.33
2018-02-22T05:57:07.437Z,35.97
2018-02-22T05:59:35.539Z,34.33
2018-02-22T06:02:03.674Z,38.67
2018-02-22T06:04:31.798Z,37.37
2018-02-22T06:06:59.910Z,36.20
2018-02-22T06:09:28.045Z,34.73
2018-02-22T06:11:56.168Z,35.00
2018-02-22T06:14:24.301Z,37.53
2018-02-22T06:16:52.424Z,38.30
2018-02-22T06:19:20.580Z,36.37
2018-02-22T06:21:48.702Z,37.93
2018-02-22T06:24:16.854Z,38.20
2018-02-22T06:26:44.974Z,39.77
2018-02-22T06:29:13.110Z,35.97
2018-02-22T06:31:41.265Z,39.50
2018-02-22T06:34:09.395Z,38.53
2018-02-22T06:36:37.509Z,37.93
2018-02-22T06:39:05.646Z,40.50
2018-02-22T06:41:33.766Z,41.60
2018-02-22T06:44:01.902Z,43.33
2018-02-22T06:46:30.011Z,38.37
2018-02-22T06:48:58.134Z,37.40
2018-02-22T06:51:26.276Z,35.77
2018-02-22T06:53:54.375Z,39.77
2018-02-22T06:56:22.498Z,37.07
2018-02-22T06:58:50.633Z,43.70
2018-02-22T07:01:18.767Z,37.77
2018-02-22T07:03:46.874Z,45.53
2018-02-22T07:06:18.300Z,38.43
2018-02-22T07:08:46.420Z,42.90
2018-02-22T07:11:14.552Z,40.23
2018-02-22T07:13:42.685Z,40.20
2018-02-22T07:16:10.797Z,38.03
2018-02-22T07:18:38.916Z,40.73
2018-02-22T07:21:07.072Z,40.97
2018-02-22T07:23:35.210Z,41.13
2018-02-22T07:26:03.332Z,42.00
2018-02-22T07:28:31.485Z,37.17
2018-02-22T07:30:59.593Z,39.47
2018-02-22T07:33:27.758Z,41.60
2018-02-22T07:35:55.890Z,38.67
2018-02-22T07:38:24.011Z,39.57
2018-02-22T07:40:52.254Z,45.87
2018-02-22T07:43:20.385Z,45.67
2018-02-22T07:45:48.503Z,38.03
2018-02-22T07:48:16.623Z,40.40
2018-02-22T07:50:44.745Z,40.33
2018-02-22T07:53:12.865Z,38.53
2018-02-22T07:55:40.997Z,38.70
2018-02-22T07:58:09.120Z,43.40
2018-02-22T08:00:37.260Z,41.27
2018-02-22T08:03:05.378Z,37.83
2018-02-22T08:05:33.492Z,39.07
2018-02-22T08:08:01.616Z,36.53
2018-02-22T08:10:29.736Z,37.07
2018-02-22T08:12:57.871Z,38.13
2018-02-22T08:15:26.022Z,40.17
2018-02-22T08:17:54.195Z,38.23
2018-02-22T08:20:22.330Z,39.07
2018-02-22T08:22:50.471Z,35.33
2018-02-22T08:25:18.587Z,35.97
2018-02-22T08:27:46.729Z,35.67
2018-02-22T08:30:14.880Z,35.47
2018-02-22T08:32:43.071Z,32.43
2018-02-22T08:35:11.172Z,34.10
2018-02-22T08:37:39.299Z,40.00
2018-02-22T08:40:07.605Z,37.90
2018-02-22T08:42:35.938Z,32.60
2018-02-22T08:45:04.055Z,34.73
2018-02-22T08:47:32.181Z,36.37
2018-02-22T08:50:00.294Z,34.13
2018-02-22T08:52:31.504Z,34.20
2018-02-22T08:54:59.622Z,35.60
2018-02-22T08:57:27.741Z,37.40
2018-02-22T08:59:55.864Z,37.43
2018-02-22T09:02:23.981Z,34.43
2018-02-22T09:04:52.113Z,33.53
2018-02-22T09:07:20.244Z,46.10
2018-02-22T09:09:48.396Z,38.00
2018-02-22T09:12:16.524Z,29.43
2018-02-22T09:14:44.630Z,32.37
2018-02-22T09:17:12.764Z,35.97
2018-02-22T09:19:40.906Z,35.33
2018-02-22T09:22:09.022Z,34.87
2018-02-22T09:24:37.164Z,31.87
2018-02-22T09:27:05.281Z,30.97
2018-02-22T09:29:33.384Z,34.97
2018-02-22T09:32:01.535Z,31.43
2018-02-22T09:34:29.640Z,31.00
2018-02-22T09:36:57.777Z,31.10
2018-02-22T09:39:25.896Z,37.87
2018-02-22T09:41:54.030Z,32.50
2018-02-22T09:44:22.140Z,35.30
2018-02-22T09:46:50.275Z,37.70
2018-02-22T09:49:18.376Z,30.40
2018-02-22T09:51:46.538Z,33.93
2018-02-22T09:54:14.655Z,40.63
2018-02-22T09:56:45.983Z,32.00
2018-02-22T09:59:14.133Z,32.27
2018-02-22T10:01:42.321Z,30.43
2018-02-22T10:04:10.412Z,40.20
2018-02-22T10:06:38.539Z,33.23
2018-02-22T10:09:06.659Z,36.57
2018-02-22T10:11:34.762Z,28.17
2018-02-22T10:14:02.907Z,31.17
2018-02-22T10:16:31.043Z,31.53
2018-02-22T10:18:59.223Z,30.57
2018-02-22T10:21:27.361Z,29.50
2018-02-22T10:23:55.501Z,28.43
2018-02-22T10:26:23.618Z,27.67
2018-02-22T10:28:51.752Z,27.30
2018-02-22T10:31:23.088Z,28.87
2018-02-22T10:33:51.239Z,27.30
2018-02-22T10:36:19.388Z,27.90
2018-02-22T10:38:47.521Z,30.87
2018-02-22T10:41:15.678Z,32.23
2018-02-22T10:43:43.899Z,24.47
2018-02-22T10:46:12.121Z,28.43
2018-02-22T10:48:40.236Z,24.57
2018-02-22T10:51:08.400Z,24.63
2018-02-22T10:53:36.529Z,26.67
2018-02-22T10:56:06.577Z,28.20
2018-02-22T10:58:34.720Z,26.30
2018-02-22T11:01:08.373Z,26.80
2018-02-22T11:03:37.420Z,30.70
2018-02-22T11:06:05.551Z,34.73
2018-02-22T11:08:33.672Z,28.23
2018-02-22T11:11:01.796Z,28.97
2018-02-22T11:13:29.958Z,28.70
2018-02-22T11:16:01.072Z,25.93
2018-02-22T11:18:29.204Z,27.50
2018-02-22T11:20:57.341Z,24.43
2018-02-22T11:23:25.465Z,25.13
2018-02-22T11:25:53.600Z,22.57
2018-02-22T11:28:21.717Z,23.70
2018-02-22T11:30:49.934Z,23.60
2018-02-22T11:33:18.050Z,22.73
2018-02-22T11:35:46.171Z,21.93
2018-02-22T11:38:14.305Z,23.43
2018-02-22T11:40:42.417Z,23.87
2018-02-22T11:43:10.584Z,19.83
2018-02-22T11:45:38.715Z,24.83
2018-02-22T11:48:06.857Z,22.50
2018-02-22T11:50:34.988Z,21.97
2018-02-22T11:53:03.118Z,20.07
2018-02-22T11:55:31.223Z,22.30
2018-02-22T11:57:59.343Z,20.37
2018-02-22T12:00:27.474Z,24.50
2018-02-22T12:02:55.596Z,24.70
2018-02-22T12:05:23.717Z,19.43
2018-02-22T12:07:51.838Z,21.17
2018-02-22T12:10:23.180Z,22.83
2018-02-22T12:12:51.283Z,21.20
2018-02-22T12:15:19.418Z,16.87
2018-02-22T12:17:47.536Z,14.63
2018-02-22T12:20:15.656Z,17.17
2018-02-22T12:22:43.806Z,19.97
2018-02-22T12:25:11.903Z,17.17
2018-02-22T12:27:40.029Z,17.50
2018-02-22T12:30:08.179Z,22.63
2018-02-22T12:32:36.279Z,15.20
2018-02-22T12:35:05.337Z,17.10
2018-02-22T12:37:33.459Z,19.47
2018-02-22T12:40:01.579Z,17.73
2018-02-22T12:42:29.750Z,15.97
2018-02-22T12:44:57.859Z,14.97
2018-02-22T12:47:25.959Z,17.90
2018-02-22T12:49:54.091Z,14.07
2018-02-22T12:52:22.278Z,16.87
2018-02-22T12:54:50.399Z,14.03
2018-02-22T12:57:18.505Z,12.93
2018-02-22T12:59:46.637Z,13.23
2018-02-22T13:02:14.759Z,12.60
2018-02-22T13:04:42.870Z,13.57
2018-02-22T13:07:10.996Z,15.27
2018-02-22T13:09:39.097Z,17.30
2018-02-22T13:12:07.350Z,9.23
2018-02-22T13:14:35.477Z,14.67
2018-02-22T13:17:03.587Z,14.27
2018-02-22T13:19:31.706Z,10.13
2018-02-22T13:21:59.801Z,11.90
2018-02-22T13:24:27.908Z,11.93
2018-02-22T13:26:56.033Z,13.00
2018-02-22T13:29:24.165Z,18.83
2018-02-22T13:31:52.913Z,12.87
2018-02-22T13:34:35.910Z,13.33
2018-02-22T13:37:15.985Z,11.00
2018-02-22T13:39:44.102Z,17.40
2018-02-22T13:42:12.239Z,13.03
2018-02-22T13:44:52.322Z,12.70
2018-02-22T13:47:20.455Z,15.00
2018-02-22T13:50:00.560Z,10.57
2018-02-22T13:52:28.745Z,16.03
2018-02-22T13:54:56.857Z,13.00
2018-02-22T13:57:24.979Z,13.97
2018-02-22T13:59:53.091Z,14.67
2018-02-22T14:02:24.599Z,12.57
2018-02-22T14:04:52.720Z,13.20
2018-02-22T14:07:20.836Z,11.70
2018-02-22T14:09:48.942Z,10.77
2018-02-22T14:12:17.065Z,12.00
2018-02-22T14:14:45.195Z,13.33
2018-02-22T14:17:13.363Z,13.20
2018-02-22T14:19:41.436Z,11.40
2018-02-22T14:22:09.539Z,13.80
2018-02-22T14:24:37.644Z,14.03
2018-02-22T14:27:05.791Z,14.47
2018-02-22T14:29:33.888Z,13.10
2018-02-22T14:32:01.991Z,13.53
2018-02-22T14:34:30.633Z,12.03
2018-02-22T14:36:58.730Z,13.27
2018-02-22T14:39:26.845Z,14.77
2018-02-22T14:41:54.978Z,14.60
2018-02-22T14:44:23.073Z,14.53
2018-02-22T14:46:51.187Z,12.40
2018-02-22T14:49:19.309Z,11.10
2018-02-22T14:51:47.450Z,13.37
2018-02-22T14:54:15.565Z,17.23
2018-02-22T14:56:43.664Z,14.33
2018-02-22T14:59:13.701Z,14.73
2018-02-22T15:01:41.805Z,17.10
2018-02-22T15:04:09.908Z,14.50
2018-02-22T15:06:38.048Z,17.47
2018-02-22T15:09:06.159Z,16.53
2018-02-22T15:11:34.300Z,16.23
2018-02-22T15:14:02.465Z,27.20
2018-02-22T15:16:30.573Z,24.60
2018-02-22T15:18:58.689Z,16.23
2018-02-22T15:21:26.809Z,16.57
2018-02-22T15:23:55.055Z,19.10
2018-02-22T15:26:23.178Z,16.83
2018-02-22T15:28:51.300Z,15.57
2018-02-22T15:31:19.700Z,19.27
2018-02-22T15:33:47.833Z,19.63
2018-02-22T15:36:15.970Z,18.37
2018-02-22T15:38:44.092Z,16.67
2018-02-22T15:41:12.204Z,18.30
2018-02-22T15:43:40.342Z,17.27
2018-02-22T15:46:08.479Z,17.00
2018-02-22T15:48:36.697Z,19.43
2018-02-22T15:51:04.802Z,18.00
2018-02-22T15:53:32.936Z,17.70
2018-02-22T15:56:01.045Z,21.70
2018-02-22T15:58:29.176Z,21.13
2018-02-22T16:00:57.301Z,19.27
2018-02-22T16:03:25.432Z,20.80
2018-02-22T16:05:53.544Z,24.00
2018-02-22T16:08:21.650Z,22.57
2018-02-22T16:10:49.776Z,18.43
2018-02-22T16:13:18.014Z,21.77
2018-02-22T16:15:46.145Z,21.10
2018-02-22T16:18:14.331Z,21.00
2018-02-22T16:20:42.444Z,22.13
2018-02-22T16:23:10.573Z,20.57
2018-02-22T16:25:38.699Z,23.83
2018-02-22T16:28:06.825Z,22.67
2018-02-22T16:30:34.966Z,25.37
2018-02-22T16:33:03.114Z,22.20
2018-02-22T16:35:31.242Z,25.10
2018-02-22T16:37:59.374Z,27.10
2018-02-22T16:40:27.578Z,23.83
2018-02-22T16:42:55.682Z,23.47
2018-02-22T16:45:27.434Z,23.67
2018-02-22T16:47:55.564Z,25.73
2018-02-22T16:50:23.696Z,21.60
2018-02-22T16:52:51.806Z,22.23
2018-02-22T16:55:19.923Z,23.17
2018-02-22T16:57:51.228Z,26.70
2018-02-22T17:00:19.355Z,23.87
2018-02-22T17:02:47.490Z,25.83
2018-02-22T17:05:15.600Z,23.63
2018-02-22T17:07:43.739Z,24.30
2018-02-22T17:10:11.862Z,25.37
2018-02-22T17:12:39.982Z,25.23
2018-02-22T17:15:08.116Z,24.63
2018-02-22T17:17:45.216Z,28.30
2018-02-22T17:20:13.336Z,24.47
2018-02-22T17:22:41.439Z,28.50
2018-02-22T17:25:09.567Z,28.83
2018-02-22T17:27:43.325Z,27.53
2018-02-22T17:30:17.035Z,31.23
2018-02-22T17:32:45.229Z,26.23
2018-02-22T17:38:38.211Z,30.43
2018-02-22T17:41:06.346Z,27.40
2018-02-22T17:43:34.479Z,23.97
2018-02-22T17:46:02.591Z,25.17
2018-02-22T17:48:30.733Z,26.83
2018-02-22T17:50:58.906Z,24.40
2018-02-22T17:53:27.026Z,27.37
2018-02-22T17:55:55.277Z,25.40
2018-02-22T17:58:23.773Z,26.57
2018-02-22T18:01:03.742Z,26.90
2018-02-22T18:03:31.837Z,26.30
2018-02-22T18:05:59.949Z,23.47
2018-02-22T18:08:28.093Z,27.23
2018-02-22T18:10:56.218Z,26.27
2018-02-22T18:13:24.354Z,25.43
2018-02-22T18:15:52.460Z,25.93
2018-02-22T18:18:20.595Z,26.40
2018-02-22T18:20:48.733Z,21.47
2018-02-22T18:23:16.960Z,25.67
2018-02-22T18:25:45.154Z,23.90
2018-02-22T18:28:13.284Z,25.43
2018-02-22T18:30:41.430Z,27.70
2018-02-22T18:33:09.568Z,29.63
2018-02-22T18:35:37.785Z,24.63
2018-02-22T18:38:05.931Z,25.63
2018-02-22T18:40:39.631Z,27.90
2018-02-22T18:43:13.471Z,26.07
2018-02-22T18:45:41.581Z,27.87
2018-02-22T18:48:09.704Z,24.67
2018-02-22T18:50:37.828Z,27.33
2018-02-22T18:53:05.956Z,25.43
2018-02-22T18:55:34.068Z,26.63
2018-02-22T18:58:02.171Z,27.17
2018-02-22T19:00:30.397Z,24.60
2018-02-22T19:03:01.444Z,27.97
2018-02-22T19:05:33.252Z,23.73
2018-02-22T19:08:01.338Z,28.00
2018-02-22T19:10:29.453Z,25.60
2018-02-22T19:12:57.568Z,25.23
2018-02-22T19:15:25.687Z,25.60
2018-02-22T19:17:53.816Z,28.67
2018-02-22T19:20:21.941Z,24.20
2018-02-22T19:22:53.674Z,25.40
2018-02-22T19:25:21.808Z,23.53
2018-02-22T19:27:49.937Z,24.63
2018-02-22T19:30:18.035Z,24.00
2018-02-22T19:32:46.212Z,26.30
2018-02-22T19:35:14.333Z,24.10
2018-02-22T19:37:42.463Z,28.63
2018-02-22T19:40:10.569Z,24.67
2018-02-22T19:42:38.679Z,27.33
2018-02-22T19:45:06.818Z,23.37
2018-02-22T19:47:34.944Z,21.67
2018-02-22T19:50:03.065Z,24.53
2018-02-22T19:52:31.181Z,24.20
2018-02-22T19:54:59.326Z,25.10
2018-02-22T19:57:27.451Z,24.43
2018-02-22T19:59:55.599Z,22.23
2018-02-22T20:02:23.729Z,22.90
2018-02-22T20:04:51.856Z,22.17
2018-02-22T20:07:19.961Z,24.87
2018-02-22T20:09:48.076Z,23.77
2018-02-22T20:12:16.210Z,21.83
2018-02-22T20:14:44.328Z,21.73
2018-02-22T20:17:12.444Z,22.27
2018-02-22T20:19:40.563Z,26.50
2018-02-22T20:22:08.681Z,21.60
2018-02-22T20:24:36.813Z,22.60
2018-02-22T20:27:04.938Z,22.23
2018-02-22T20:29:33.057Z,24.17
2018-02-22T20:32:05.052Z,25.23
2018-02-22T20:34:33.181Z,21.63
2018-02-22T20:37:01.327Z,22.43
2018-02-22T20:39:29.459Z,24.07
2018-02-22T20:41:57.578Z,22.33
2018-02-22T20:44:25.693Z,18.77
2018-02-22T20:46:53.829Z,20.23
2018-02-22T20:49:21.973Z,21.30
2018-02-22T20:51:51.950Z,23.43
2018-02-22T20:54:20.089Z,22.50
2018-02-22T20:56:48.201Z,22.73
2018-02-22T20:59:17.063Z,24.67
2018-02-22T21:01:45.158Z,26.03
2018-02-22T21:04:14.176Z,23.40
2018-02-22T21:06:42.310Z,21.50
2018-02-22T21:09:10.462Z,22.93
2018-02-22T21:11:38.599Z,29.80
2018-02-22T21:14:06.721Z,23.57
2018-02-22T21:16:34.824Z,25.80
2018-02-22T21:19:02.958Z,23.10
2018-02-22T21:21:31.065Z,24.33
2018-02-22T21:23:59.196Z,25.70
2018-02-22T21:26:27.323Z,27.87
2018-02-22T21:28:55.435Z,25.37
2018-02-22T21:31:23.603Z,27.17
2018-02-22T21:33:51.721Z,28.27
2018-02-22T21:36:19.866Z,27.07
2018-02-22T21:38:47.962Z,24.73
2018-02-22T21:41:16.087Z,26.97
2018-02-22T21:43:44.223Z,27.10
2018-02-22T21:46:13.245Z,26.50
2018-02-22T21:48:41.390Z,25.73
2018-02-22T21:51:12.765Z,29.67
2018-02-22T21:53:40.909Z,28.37
2018-02-22T21:56:09.046Z,27.37
2018-02-22T21:58:37.145Z,26.63
2018-02-22T22:01:05.297Z,24.20
2018-02-22T22:03:33.408Z,27.43
2018-02-22T22:06:01.702Z,28.57
2018-02-22T22:08:29.811Z,27.43
2018-02-22T22:10:57.916Z,27.90
2018-02-22T22:13:26.035Z,27.57
2018-02-22T22:15:54.152Z,26.67
2018-02-22T22:18:22.280Z,26.60
2018-02-22T22:20:50.392Z,27.90
2018-02-22T22:23:18.515Z,29.63
2018-02-22T22:25:46.644Z,29.80
2018-02-22T22:28:14.775Z,30.00
2018-02-22T22:30:42.893Z,29.93
2018-02-22T22:33:10.999Z,26.70
2018-02-22T22:35:39.124Z,26.00
2018-02-22T22:38:07.232Z,25.97
2018-02-22T22:40:35.369Z,28.63
2018-02-22T22:43:03.484Z,29.13
2018-02-22T22:45:31.600Z,28.60
2018-02-22T22:47:59.715Z,28.37
2018-02-22T22:50:27.837Z,27.37
2018-02-22T22:52:55.967Z,28.43
2018-02-22T22:55:24.077Z,26.50
2018-02-22T22:57:52.275Z,30.17
2018-02-22T23:00:22.325Z,28.77
2018-02-22T23:02:50.455Z,30.37
2018-02-22T23:05:18.593Z,29.77
2018-02-22T23:07:46.715Z,27.97
2018-02-22T23:10:14.833Z,27.33
2018-02-22T23:12:42.961Z,26.30
2018-02-22T23:15:11.076Z,27.83
2018-02-22T23:17:39.191Z,29.07
2018-02-22T23:20:07.329Z,27.20
2018-02-22T23:22:35.431Z,28.20
2018-02-22T23:25:03.535Z,29.40
2018-02-22T23:27:31.709Z,31.97
2018-02-22T23:29:59.822Z,28.80
2018-02-22T23:32:27.959Z,28.53
2018-02-22T23:34:56.086Z,31.53
2018-02-22T23:37:24.193Z,29.10
2018-02-22T23:39:52.330Z,28.13
2018-02-22T23:42:23.823Z,29.50
2018-02-22T23:44:51.956Z,31.03
2018-02-22T23:47:20.067Z,28.17
2018-02-22T23:49:48.176Z,26.53
2018-02-22T23:52:16.325Z,30.20
2018-02-22T23:54:44.441Z,25.70
2018-02-22T23:57:12.565Z,29.97
2018-02-22T23:59:40.691Z,28.60
